sensor_id;sensor_type;location;lat;lon;timestamp;temperature;humidity
76172;DHT22;64929;51.178;4.138;2023-08-01T00:00:43;17.20;98.40
76172;DHT22;64929;51.178;4.138;2023-08-01T00:03:08;17.30;98.70
76172;DHT22;64929;51.178;4.138;2023-08-01T00:05:34;17.20;98.60
76172;DHT22;64929;51.178;4.138;2023-08-01T00:08:00;17.30;98.60
76172;DHT22;64929;51.178;4.138;2023-08-01T00:10:27;17.30;98.30
76172;DHT22;64929;51.178;4.138;2023-08-01T00:12:53;17.40;97.80
76172;DHT22;64929;51.178;4.138;2023-08-01T00:15:19;17.40;98.00
76172;DHT22;64929;51.178;4.138;2023-08-01T00:17:44;17.40;98.20
76172;DHT22;64929;51.178;4.138;2023-08-01T00:20:10;17.40;98.10
76172;DHT22;64929;51.178;4.138;2023-08-01T00:22:36;17.40;98.00
76172;DHT22;64929;51.178;4.138;2023-08-01T00:25:02;17.30;98.30
76172;DHT22;64929;51.178;4.138;2023-08-01T00:27:28;17.30;98.30
76172;DHT22;64929;51.178;4.138;2023-08-01T00:29:54;17.30;98.00
76172;DHT22;64929;51.178;4.138;2023-08-01T00:32:20;17.40;97.70
76172;DHT22;64929;51.178;4.138;2023-08-01T00:34:45;17.40;97.90
76172;DHT22;64929;51.178;4.138;2023-08-01T00:37:12;17.40;97.70
76172;DHT22;64929;51.178;4.138;2023-08-01T00:39:37;17.40;97.90
76172;DHT22;64929;51.178;4.138;2023-08-01T00:42:03;17.20;98.40
76172;DHT22;64929;51.178;4.138;2023-08-01T00:44:29;17.20;98.20
76172;DHT22;64929;51.178;4.138;2023-08-01T00:46:55;17.10;98.60
76172;DHT22;64929;51.178;4.138;2023-08-01T00:49:21;17.10;98.60
76172;DHT22;64929;51.178;4.138;2023-08-01T00:51:47;17.10;98.40
76172;DHT22;64929;51.178;4.138;2023-08-01T00:54:14;17.10;98.60
76172;DHT22;64929;51.178;4.138;2023-08-01T00:56:40;17.00;98.40
76172;DHT22;64929;51.178;4.138;2023-08-01T00:59:05;17.00;98.50
76172;DHT22;64929;51.178;4.138;2023-08-01T01:01:31;17.10;98.50
76172;DHT22;64929;51.178;4.138;2023-08-01T01:03:57;17.10;98.30
76172;DHT22;64929;51.178;4.138;2023-08-01T01:08:51;17.20;98.40
76172;DHT22;64929;51.178;4.138;2023-08-01T01:11:16;17.30;98.30
76172;DHT22;64929;51.178;4.138;2023-08-01T01:13:42;17.00;98.40
76172;DHT22;64929;51.178;4.138;2023-08-01T01:16:08;17.00;98.60
76172;DHT22;64929;51.178;4.138;2023-08-01T01:18:34;17.10;98.50
76172;DHT22;64929;51.178;4.138;2023-08-01T01:20:59;17.00;98.60
76172;DHT22;64929;51.178;4.138;2023-08-01T01:23:26;17.10;98.60
76172;DHT22;64929;51.178;4.138;2023-08-01T01:25:53;17.10;98.40
76172;DHT22;64929;51.178;4.138;2023-08-01T01:28:20;17.30;97.80
76172;DHT22;64929;51.178;4.138;2023-08-01T01:30:46;17.00;98.40
76172;DHT22;64929;51.178;4.138;2023-08-01T01:33:13;17.10;98.30
76172;DHT22;64929;51.178;4.138;2023-08-01T01:35:40;17.20;98.00
76172;DHT22;64929;51.178;4.138;2023-08-01T01:38:06;17.10;98.20
76172;DHT22;64929;51.178;4.138;2023-08-01T01:40:33;17.10;98.40
76172;DHT22;64929;51.178;4.138;2023-08-01T01:42:59;17.10;98.20
76172;DHT22;64929;51.178;4.138;2023-08-01T01:45:25;17.00;98.40
76172;DHT22;64929;51.178;4.138;2023-08-01T01:47:51;17.00;98.30
76172;DHT22;64929;51.178;4.138;2023-08-01T01:50:17;17.20;98.00
76172;DHT22;64929;51.178;4.138;2023-08-01T01:52:44;17.10;98.00
76172;DHT22;64929;51.178;4.138;2023-08-01T01:55:10;17.10;98.20
76172;DHT22;64929;51.178;4.138;2023-08-01T01:57:36;17.00;98.30
76172;DHT22;64929;51.178;4.138;2023-08-01T02:00:03;17.00;98.60
76172;DHT22;64929;51.178;4.138;2023-08-01T02:02:29;16.90;98.60
76172;DHT22;64929;51.178;4.138;2023-08-01T02:04:55;16.90;98.70
76172;DHT22;64929;51.178;4.138;2023-08-01T02:07:21;16.90;98.40
76172;DHT22;64929;51.178;4.138;2023-08-01T02:09:46;17.10;98.10
76172;DHT22;64929;51.178;4.138;2023-08-01T02:12:12;17.00;98.20
76172;DHT22;64929;51.178;4.138;2023-08-01T02:14:40;17.00;98.40
76172;DHT22;64929;51.178;4.138;2023-08-01T02:17:06;17.00;98.40
76172;DHT22;64929;51.178;4.138;2023-08-01T02:19:32;16.90;98.60
76172;DHT22;64929;51.178;4.138;2023-08-01T02:21:58;17.10;98.30
76172;DHT22;64929;51.178;4.138;2023-08-01T02:24:24;17.20;97.90
76172;DHT22;64929;51.178;4.138;2023-08-01T02:26:50;17.20;97.80
76172;DHT22;64929;51.178;4.138;2023-08-01T02:29:16;17.10;98.10
76172;DHT22;64929;51.178;4.138;2023-08-01T02:31:42;16.90;98.50
76172;DHT22;64929;51.178;4.138;2023-08-01T02:34:08;16.90;98.60
76172;DHT22;64929;51.178;4.138;2023-08-01T02:36:33;17.10;98.20
76172;DHT22;64929;51.178;4.138;2023-08-01T02:38:59;17.10;98.40
76172;DHT22;64929;51.178;4.138;2023-08-01T02:41:25;17.00;98.20
76172;DHT22;64929;51.178;4.138;2023-08-01T02:43:51;16.90;98.60
76172;DHT22;64929;51.178;4.138;2023-08-01T02:46:16;16.90;98.90
76172;DHT22;64929;51.178;4.138;2023-08-01T02:48:42;16.90;98.60
76172;DHT22;64929;51.178;4.138;2023-08-01T02:51:08;16.90;98.50
76172;DHT22;64929;51.178;4.138;2023-08-01T02:53:36;16.70;98.90
76172;DHT22;64929;51.178;4.138;2023-08-01T02:56:02;16.80;98.80
76172;DHT22;64929;51.178;4.138;2023-08-01T02:58:30;16.70;99.00
76172;DHT22;64929;51.178;4.138;2023-08-01T03:00:55;16.70;99.10
76172;DHT22;64929;51.178;4.138;2023-08-01T03:03:21;16.60;99.30
76172;DHT22;64929;51.178;4.138;2023-08-01T03:05:47;16.70;99.00
76172;DHT22;64929;51.178;4.138;2023-08-01T03:08:13;16.70;99.20
76172;DHT22;64929;51.178;4.138;2023-08-01T03:10:39;16.70;99.30
76172;DHT22;64929;51.178;4.138;2023-08-01T03:13:04;16.80;99.10
76172;DHT22;64929;51.178;4.138;2023-08-01T03:15:30;16.80;99.00
76172;DHT22;64929;51.178;4.138;2023-08-01T03:17:57;16.90;98.80
76172;DHT22;64929;51.178;4.138;2023-08-01T03:20:23;16.90;98.80
76172;DHT22;64929;51.178;4.138;2023-08-01T03:22:48;16.90;99.00
76172;DHT22;64929;51.178;4.138;2023-08-01T03:25:14;17.00;98.70
76172;DHT22;64929;51.178;4.138;2023-08-01T03:27:40;17.00;98.80
76172;DHT22;64929;51.178;4.138;2023-08-01T03:30:06;17.00;98.50
76172;DHT22;64929;51.178;4.138;2023-08-01T03:32:34;17.00;98.80
76172;DHT22;64929;51.178;4.138;2023-08-01T03:35:00;17.10;98.60
76172;DHT22;64929;51.178;4.138;2023-08-01T03:37:26;17.10;98.40
76172;DHT22;64929;51.178;4.138;2023-08-01T03:39:52;17.00;98.60
76172;DHT22;64929;51.178;4.138;2023-08-01T03:42:17;16.90;98.90
76172;DHT22;64929;51.178;4.138;2023-08-01T03:44:43;16.90;98.80
76172;DHT22;64929;51.178;4.138;2023-08-01T03:47:09;16.90;98.80
76172;DHT22;64929;51.178;4.138;2023-08-01T03:49:34;16.90;98.70
76172;DHT22;64929;51.178;4.138;2023-08-01T03:52:00;17.00;98.70
76172;DHT22;64929;51.178;4.138;2023-08-01T03:54:26;17.10;98.30
76172;DHT22;64929;51.178;4.138;2023-08-01T03:56:52;16.90;98.70
76172;DHT22;64929;51.178;4.138;2023-08-01T03:59:18;17.00;98.60
76172;DHT22;64929;51.178;4.138;2023-08-01T04:01:44;17.00;98.50
76172;DHT22;64929;51.178;4.138;2023-08-01T04:04:10;17.00;98.40
76172;DHT22;64929;51.178;4.138;2023-08-01T04:06:36;17.00;98.50
76172;DHT22;64929;51.178;4.138;2023-08-01T04:09:01;16.80;98.70
76172;DHT22;64929;51.178;4.138;2023-08-01T04:11:27;16.80;98.80
76172;DHT22;64929;51.178;4.138;2023-08-01T04:13:55;16.80;98.70
76172;DHT22;64929;51.178;4.138;2023-08-01T04:16:21;16.90;98.70
76172;DHT22;64929;51.178;4.138;2023-08-01T04:18:47;16.80;98.90
76172;DHT22;64929;51.178;4.138;2023-08-01T04:21:14;16.80;98.60
76172;DHT22;64929;51.178;4.138;2023-08-01T04:23:40;17.00;98.40
76172;DHT22;64929;51.178;4.138;2023-08-01T04:26:06;17.00;98.30
76172;DHT22;64929;51.178;4.138;2023-08-01T04:28:33;17.10;97.90
76172;DHT22;64929;51.178;4.138;2023-08-01T04:30:58;17.00;98.10
76172;DHT22;64929;51.178;4.138;2023-08-01T04:33:24;17.00;97.90
76172;DHT22;64929;51.178;4.138;2023-08-01T04:35:50;17.00;98.10
76172;DHT22;64929;51.178;4.138;2023-08-01T04:38:16;16.80;98.50
76172;DHT22;64929;51.178;4.138;2023-08-01T04:40:42;16.90;98.30
76172;DHT22;64929;51.178;4.138;2023-08-01T04:43:08;16.80;98.70
76172;DHT22;64929;51.178;4.138;2023-08-01T04:45:33;16.80;98.50
76172;DHT22;64929;51.178;4.138;2023-08-01T04:47:59;17.00;98.30
76172;DHT22;64929;51.178;4.138;2023-08-01T04:50:25;17.10;98.40
76172;DHT22;64929;51.178;4.138;2023-08-01T04:52:50;17.00;98.20
76172;DHT22;64929;51.178;4.138;2023-08-01T04:55:16;17.00;98.40
76172;DHT22;64929;51.178;4.138;2023-08-01T04:57:42;17.10;98.20
76172;DHT22;64929;51.178;4.138;2023-08-01T05:00:09;17.10;98.50
76172;DHT22;64929;51.178;4.138;2023-08-01T05:02:35;17.10;98.40
76172;DHT22;64929;51.178;4.138;2023-08-01T05:05:00;17.10;98.10
76172;DHT22;64929;51.178;4.138;2023-08-01T05:07:26;17.10;98.20
76172;DHT22;64929;51.178;4.138;2023-08-01T05:09:52;17.10;97.90
76172;DHT22;64929;51.178;4.138;2023-08-01T05:12:17;17.00;98.40
76172;DHT22;64929;51.178;4.138;2023-08-01T05:14:43;17.10;98.20
76172;DHT22;64929;51.178;4.138;2023-08-01T05:17:09;16.90;98.40
76172;DHT22;64929;51.178;4.138;2023-08-01T05:19:35;16.90;98.50
76172;DHT22;64929;51.178;4.138;2023-08-01T05:22:01;16.90;98.50
76172;DHT22;64929;51.178;4.138;2023-08-01T05:24:26;17.00;98.60
76172;DHT22;64929;51.178;4.138;2023-08-01T05:26:52;17.10;98.30
76172;DHT22;64929;51.178;4.138;2023-08-01T05:29:18;17.20;98.10
76172;DHT22;64929;51.178;4.138;2023-08-01T05:31:43;17.30;98.30
76172;DHT22;64929;51.178;4.138;2023-08-01T05:34:09;17.20;98.00
76172;DHT22;64929;51.178;4.138;2023-08-01T05:36:35;17.10;98.40
76172;DHT22;64929;51.178;4.138;2023-08-01T05:39:02;17.10;98.30
76172;DHT22;64929;51.178;4.138;2023-08-01T05:41:28;17.30;98.40
76172;DHT22;64929;51.178;4.138;2023-08-01T05:43:54;17.30;97.70
76172;DHT22;64929;51.178;4.138;2023-08-01T05:46:19;17.40;98.00
76172;DHT22;64929;51.178;4.138;2023-08-01T05:48:45;17.30;98.10
76172;DHT22;64929;51.178;4.138;2023-08-01T05:51:11;17.30;98.10
76172;DHT22;64929;51.178;4.138;2023-08-01T05:53:37;17.30;97.60
76172;DHT22;64929;51.178;4.138;2023-08-01T05:56:03;17.20;98.10
76172;DHT22;64929;51.178;4.138;2023-08-01T05:58:30;17.10;98.10
76172;DHT22;64929;51.178;4.138;2023-08-01T06:00:56;17.10;98.00
76172;DHT22;64929;51.178;4.138;2023-08-01T06:03:22;17.40;97.10
76172;DHT22;64929;51.178;4.138;2023-08-01T06:05:47;17.50;96.80
76172;DHT22;64929;51.178;4.138;2023-08-01T06:08:13;17.60;96.50
76172;DHT22;64929;51.178;4.138;2023-08-01T06:10:41;17.60;97.00
76172;DHT22;64929;51.178;4.138;2023-08-01T06:13:07;17.60;97.10
76172;DHT22;64929;51.178;4.138;2023-08-01T06:15:32;17.50;97.50
76172;DHT22;64929;51.178;4.138;2023-08-01T06:17:58;17.60;97.60
76172;DHT22;64929;51.178;4.138;2023-08-01T06:20:24;17.60;97.30
76172;DHT22;64929;51.178;4.138;2023-08-01T06:22:50;17.70;97.20
76172;DHT22;64929;51.178;4.138;2023-08-01T06:25:15;17.70;97.10
76172;DHT22;64929;51.178;4.138;2023-08-01T06:27:41;17.50;97.00
76172;DHT22;64929;51.178;4.138;2023-08-01T06:30:09;17.60;97.10
76172;DHT22;64929;51.178;4.138;2023-08-01T06:32:35;17.90;96.60
76172;DHT22;64929;51.178;4.138;2023-08-01T06:35:01;17.90;96.60
76172;DHT22;64929;51.178;4.138;2023-08-01T06:37:26;17.80;97.00
76172;DHT22;64929;51.178;4.138;2023-08-01T06:39:53;17.90;97.10
76172;DHT22;64929;51.178;4.138;2023-08-01T06:42:19;17.70;97.00
76172;DHT22;64929;51.178;4.138;2023-08-01T06:44:46;17.80;97.00
76172;DHT22;64929;51.178;4.138;2023-08-01T06:47:11;18.00;96.10
76172;DHT22;64929;51.178;4.138;2023-08-01T06:49:37;18.00;96.10
76172;DHT22;64929;51.178;4.138;2023-08-01T06:52:03;17.90;96.20
76172;DHT22;64929;51.178;4.138;2023-08-01T06:54:29;18.00;95.60
76172;DHT22;64929;51.178;4.138;2023-08-01T06:56:54;18.20;95.70
76172;DHT22;64929;51.178;4.138;2023-08-01T06:59:20;18.30;95.50
76172;DHT22;64929;51.178;4.138;2023-08-01T07:01:46;18.20;95.00
76172;DHT22;64929;51.178;4.138;2023-08-01T07:04:12;18.20;95.00
76172;DHT22;64929;51.178;4.138;2023-08-01T07:06:39;18.40;94.50
76172;DHT22;64929;51.178;4.138;2023-08-01T07:09:05;18.30;95.80
76172;DHT22;64929;51.178;4.138;2023-08-01T07:11:31;18.20;95.90
76172;DHT22;64929;51.178;4.138;2023-08-01T07:13:56;18.30;95.50
76172;DHT22;64929;51.178;4.138;2023-08-01T07:16:22;18.30;94.70
76172;DHT22;64929;51.178;4.138;2023-08-01T07:18:48;18.20;94.90
76172;DHT22;64929;51.178;4.138;2023-08-01T07:21:16;18.50;94.80
76172;DHT22;64929;51.178;4.138;2023-08-01T07:23:41;18.50;94.60
76172;DHT22;64929;51.178;4.138;2023-08-01T07:26:07;18.50;94.90
76172;DHT22;64929;51.178;4.138;2023-08-01T07:28:33;18.40;95.40
76172;DHT22;64929;51.178;4.138;2023-08-01T07:31:04;18.60;94.10
76172;DHT22;64929;51.178;4.138;2023-08-01T07:33:30;18.70;94.20
76172;DHT22;64929;51.178;4.138;2023-08-01T07:35:56;18.90;93.80
76172;DHT22;64929;51.178;4.138;2023-08-01T07:38:22;18.90;93.70
76172;DHT22;64929;51.178;4.138;2023-08-01T07:40:48;18.60;93.30
76172;DHT22;64929;51.178;4.138;2023-08-01T07:43:13;18.60;94.20
76172;DHT22;64929;51.178;4.138;2023-08-01T07:45:39;18.50;94.30
76172;DHT22;64929;51.178;4.138;2023-08-01T07:48:05;18.60;93.60
76172;DHT22;64929;51.178;4.138;2023-08-01T07:50:31;18.80;94.10
76172;DHT22;64929;51.178;4.138;2023-08-01T07:52:56;18.60;94.80
76172;DHT22;64929;51.178;4.138;2023-08-01T07:55:23;18.60;94.50
76172;DHT22;64929;51.178;4.138;2023-08-01T07:57:49;18.70;94.20
76172;DHT22;64929;51.178;4.138;2023-08-01T08:00:15;18.80;94.20
76172;DHT22;64929;51.178;4.138;2023-08-01T08:02:45;19.10;93.20
76172;DHT22;64929;51.178;4.138;2023-08-01T08:05:11;19.10;93.30
76172;DHT22;64929;51.178;4.138;2023-08-01T08:07:37;19.30;92.50
76172;DHT22;64929;51.178;4.138;2023-08-01T08:10:04;19.60;91.30
76172;DHT22;64929;51.178;4.138;2023-08-01T08:12:31;19.60;92.30
76172;DHT22;64929;51.178;4.138;2023-08-01T08:14:56;19.30;92.70
76172;DHT22;64929;51.178;4.138;2023-08-01T08:17:22;19.10;94.20
76172;DHT22;64929;51.178;4.138;2023-08-01T08:19:48;19.00;93.70
76172;DHT22;64929;51.178;4.138;2023-08-01T08:22:14;18.90;94.20
76172;DHT22;64929;51.178;4.138;2023-08-01T08:24:39;18.80;94.30
76172;DHT22;64929;51.178;4.138;2023-08-01T08:27:05;18.90;94.00
76172;DHT22;64929;51.178;4.138;2023-08-01T08:29:32;19.10;94.30
76172;DHT22;64929;51.178;4.138;2023-08-01T08:31:58;19.00;93.90
76172;DHT22;64929;51.178;4.138;2023-08-01T08:34:24;19.10;94.00
76172;DHT22;64929;51.178;4.138;2023-08-01T08:36:49;18.70;93.10
76172;DHT22;64929;51.178;4.138;2023-08-01T08:39:16;19.00;93.10
76172;DHT22;64929;51.178;4.138;2023-08-01T08:41:50;19.30;93.10
76172;DHT22;64929;51.178;4.138;2023-08-01T08:44:18;19.60;92.90
76172;DHT22;64929;51.178;4.138;2023-08-01T08:46:51;19.50;92.90
76172;DHT22;64929;51.178;4.138;2023-08-01T08:49:21;19.60;91.40
76172;DHT22;64929;51.178;4.138;2023-08-01T08:51:48;19.50;92.50
76172;DHT22;64929;51.178;4.138;2023-08-01T08:54:15;19.30;93.10
76172;DHT22;64929;51.178;4.138;2023-08-01T08:56:41;19.20;91.50
76172;DHT22;64929;51.178;4.138;2023-08-01T08:59:08;19.40;91.10
76172;DHT22;64929;51.178;4.138;2023-08-01T09:01:36;19.30;91.90
76172;DHT22;64929;51.178;4.138;2023-08-01T09:04:02;19.30;92.70
76172;DHT22;64929;51.178;4.138;2023-08-01T09:06:45;19.20;92.40
76172;DHT22;64929;51.178;4.138;2023-08-01T09:09:12;19.00;93.20
76172;DHT22;64929;51.178;4.138;2023-08-01T09:11:45;18.90;94.00
76172;DHT22;64929;51.178;4.138;2023-08-01T09:14:11;18.60;94.60
76172;DHT22;64929;51.178;4.138;2023-08-01T09:16:37;18.60;94.30
76172;DHT22;64929;51.178;4.138;2023-08-01T09:19:03;18.50;95.20
76172;DHT22;64929;51.178;4.138;2023-08-01T09:21:32;18.70;94.90
76172;DHT22;64929;51.178;4.138;2023-08-01T09:24:08;18.70;94.40
76172;DHT22;64929;51.178;4.138;2023-08-01T09:26:33;18.90;94.60
76172;DHT22;64929;51.178;4.138;2023-08-01T09:28:59;19.00;93.50
76172;DHT22;64929;51.178;4.138;2023-08-01T09:31:33;19.10;93.80
76172;DHT22;64929;51.178;4.138;2023-08-01T09:34:03;19.40;93.40
76172;DHT22;64929;51.178;4.138;2023-08-01T09:36:31;19.60;92.80
76172;DHT22;64929;51.178;4.138;2023-08-01T09:39:01;19.50;92.40
76172;DHT22;64929;51.178;4.138;2023-08-01T09:41:29;19.60;91.00
76172;DHT22;64929;51.178;4.138;2023-08-01T09:43:55;19.60;91.60
76172;DHT22;64929;51.178;4.138;2023-08-01T09:46:21;19.60;92.20
76172;DHT22;64929;51.178;4.138;2023-08-01T09:48:46;19.70;92.40
76172;DHT22;64929;51.178;4.138;2023-08-01T09:51:14;19.70;91.40
76172;DHT22;64929;51.178;4.138;2023-08-01T09:53:58;19.70;90.50
76172;DHT22;64929;51.178;4.138;2023-08-01T09:56:27;19.90;90.60
76172;DHT22;64929;51.178;4.138;2023-08-01T09:58:55;19.90;90.70
76172;DHT22;64929;51.178;4.138;2023-08-01T10:01:24;20.10;90.50
76172;DHT22;64929;51.178;4.138;2023-08-01T10:03:52;20.10;88.60
76172;DHT22;64929;51.178;4.138;2023-08-01T10:06:20;20.30;88.80
76172;DHT22;64929;51.178;4.138;2023-08-01T10:08:47;20.50;86.00
76172;DHT22;64929;51.178;4.138;2023-08-01T10:11:16;20.60;87.50
76172;DHT22;64929;51.178;4.138;2023-08-01T10:13:43;20.40;89.60
76172;DHT22;64929;51.178;4.138;2023-08-01T10:16:09;20.30;86.30
76172;DHT22;64929;51.178;4.138;2023-08-01T10:18:36;20.30;86.40
76172;DHT22;64929;51.178;4.138;2023-08-01T10:21:07;20.20;86.60
76172;DHT22;64929;51.178;4.138;2023-08-01T10:23:33;19.90;87.90
76172;DHT22;64929;51.178;4.138;2023-08-01T10:26:00;20.30;86.10
76172;DHT22;64929;51.178;4.138;2023-08-01T10:28:41;20.40;87.40
76172;DHT22;64929;51.178;4.138;2023-08-01T10:31:14;20.50;86.40
76172;DHT22;64929;51.178;4.138;2023-08-01T10:33:46;20.60;86.50
76172;DHT22;64929;51.178;4.138;2023-08-01T10:36:20;20.80;87.80
76172;DHT22;64929;51.178;4.138;2023-08-01T10:38:56;20.80;84.00
76172;DHT22;64929;51.178;4.138;2023-08-01T10:41:32;20.80;84.60
76172;DHT22;64929;51.178;4.138;2023-08-01T10:44:12;20.90;83.70
76172;DHT22;64929;51.178;4.138;2023-08-01T10:46:50;21.00;80.00
76172;DHT22;64929;51.178;4.138;2023-08-01T10:49:17;21.10;81.00
76172;DHT22;64929;51.178;4.138;2023-08-01T10:51:44;21.20;83.10
76172;DHT22;64929;51.178;4.138;2023-08-01T10:54:24;21.40;82.30
76172;DHT22;64929;51.178;4.138;2023-08-01T10:56:52;21.80;81.30
76172;DHT22;64929;51.178;4.138;2023-08-01T10:59:18;21.90;82.90
76172;DHT22;64929;51.178;4.138;2023-08-01T11:01:49;21.50;78.30
76172;DHT22;64929;51.178;4.138;2023-08-01T11:04:18;21.50;81.30
76172;DHT22;64929;51.178;4.138;2023-08-01T11:06:54;21.40;82.70
76172;DHT22;64929;51.178;4.138;2023-08-01T11:09:25;21.90;81.50
76172;DHT22;64929;51.178;4.138;2023-08-01T11:11:55;22.00;81.70
76172;DHT22;64929;51.178;4.138;2023-08-01T11:14:22;22.00;82.00
76172;DHT22;64929;51.178;4.138;2023-08-01T11:16:49;21.70;79.60
76172;DHT22;64929;51.178;4.138;2023-08-01T11:19:24;21.40;80.90
76172;DHT22;64929;51.178;4.138;2023-08-01T11:21:51;21.30;80.90
76172;DHT22;64929;51.178;4.138;2023-08-01T11:24:22;21.40;79.90
76172;DHT22;64929;51.178;4.138;2023-08-01T11:26:49;21.50;80.90
76172;DHT22;64929;51.178;4.138;2023-08-01T11:29:16;21.50;77.90
76172;DHT22;64929;51.178;4.138;2023-08-01T11:31:58;21.60;79.40
76172;DHT22;64929;51.178;4.138;2023-08-01T11:34:24;21.90;77.30
76172;DHT22;64929;51.178;4.138;2023-08-01T11:36:51;22.10;80.20
76172;DHT22;64929;51.178;4.138;2023-08-01T11:39:17;22.00;80.80
76172;DHT22;64929;51.178;4.138;2023-08-01T11:41:44;22.20;78.40
76172;DHT22;64929;51.178;4.138;2023-08-01T11:44:10;22.20;82.00
76172;DHT22;64929;51.178;4.138;2023-08-01T11:46:37;22.40;78.50
76172;DHT22;64929;51.178;4.138;2023-08-01T11:49:07;22.50;81.00
76172;DHT22;64929;51.178;4.138;2023-08-01T11:51:43;22.30;76.80
76172;DHT22;64929;51.178;4.138;2023-08-01T11:54:09;22.30;79.20
76172;DHT22;64929;51.178;4.138;2023-08-01T11:56:37;22.20;74.90
76172;DHT22;64929;51.178;4.138;2023-08-01T11:59:17;22.00;74.00
76172;DHT22;64929;51.178;4.138;2023-08-01T12:01:46;22.10;73.90
76172;DHT22;64929;51.178;4.138;2023-08-01T12:04:23;21.90;71.60
76172;DHT22;64929;51.178;4.138;2023-08-01T12:06:49;21.80;72.10
76172;DHT22;64929;51.178;4.138;2023-08-01T12:09:15;21.80;74.00
76172;DHT22;64929;51.178;4.138;2023-08-01T12:11:41;21.80;72.20
76172;DHT22;64929;51.178;4.138;2023-08-01T12:14:08;21.90;73.20
76172;DHT22;64929;51.178;4.138;2023-08-01T12:16:38;21.90;73.30
76172;DHT22;64929;51.178;4.138;2023-08-01T12:19:04;22.10;73.30
76172;DHT22;64929;51.178;4.138;2023-08-01T12:21:32;22.30;73.60
76172;DHT22;64929;51.178;4.138;2023-08-01T12:23:58;22.30;71.40
76172;DHT22;64929;51.178;4.138;2023-08-01T12:26:24;22.30;71.70
76172;DHT22;64929;51.178;4.138;2023-08-01T12:28:50;22.40;70.10
76172;DHT22;64929;51.178;4.138;2023-08-01T12:31:20;21.90;71.00
76172;DHT22;64929;51.178;4.138;2023-08-01T12:33:46;21.70;72.20
76172;DHT22;64929;51.178;4.138;2023-08-01T12:36:16;21.70;71.60
76172;DHT22;64929;51.178;4.138;2023-08-01T12:38:42;21.50;73.30
76172;DHT22;64929;51.178;4.138;2023-08-01T12:41:08;21.30;74.00
76172;DHT22;64929;51.178;4.138;2023-08-01T12:43:34;21.30;73.50
76172;DHT22;64929;51.178;4.138;2023-08-01T12:45:59;21.40;74.10
76172;DHT22;64929;51.178;4.138;2023-08-01T12:48:26;21.50;73.40
76172;DHT22;64929;51.178;4.138;2023-08-01T12:50:51;21.60;73.50
76172;DHT22;64929;51.178;4.138;2023-08-01T12:53:18;21.70;72.10
76172;DHT22;64929;51.178;4.138;2023-08-01T12:55:45;21.70;75.50
76172;DHT22;64929;51.178;4.138;2023-08-01T12:58:11;21.90;73.80
76172;DHT22;64929;51.178;4.138;2023-08-01T13:00:38;21.90;74.80
76172;DHT22;64929;51.178;4.138;2023-08-01T13:03:04;21.70;74.10
76172;DHT22;64929;51.178;4.138;2023-08-01T13:05:30;21.60;73.00
76172;DHT22;64929;51.178;4.138;2023-08-01T13:07:55;21.90;72.80
76172;DHT22;64929;51.178;4.138;2023-08-01T13:10:21;22.40;72.60
76172;DHT22;64929;51.178;4.138;2023-08-01T13:12:47;22.40;72.50
76172;DHT22;64929;51.178;4.138;2023-08-01T13:15:13;22.30;72.00
76172;DHT22;64929;51.178;4.138;2023-08-01T13:17:38;22.20;72.00
76172;DHT22;64929;51.178;4.138;2023-08-01T13:20:05;22.30;72.20
76172;DHT22;64929;51.178;4.138;2023-08-01T13:22:31;22.50;70.10
76172;DHT22;64929;51.178;4.138;2023-08-01T13:24:57;22.50;73.00
76172;DHT22;64929;51.178;4.138;2023-08-01T13:27:24;22.50;73.90
76172;DHT22;64929;51.178;4.138;2023-08-01T13:29:50;22.30;71.10
76172;DHT22;64929;51.178;4.138;2023-08-01T13:32:18;22.20;72.50
76172;DHT22;64929;51.178;4.138;2023-08-01T13:34:43;22.20;71.40
76172;DHT22;64929;51.178;4.138;2023-08-01T13:37:09;22.30;71.60
76172;DHT22;64929;51.178;4.138;2023-08-01T13:39:35;22.50;71.30
76172;DHT22;64929;51.178;4.138;2023-08-01T13:42:01;22.70;70.00
76172;DHT22;64929;51.178;4.138;2023-08-01T13:44:26;22.50;70.60
76172;DHT22;64929;51.178;4.138;2023-08-01T13:46:52;22.40;71.50
76172;DHT22;64929;51.178;4.138;2023-08-01T13:49:18;22.40;72.10
76172;DHT22;64929;51.178;4.138;2023-08-01T13:51:44;22.40;72.70
76172;DHT22;64929;51.178;4.138;2023-08-01T13:54:09;22.40;70.90
76172;DHT22;64929;51.178;4.138;2023-08-01T13:56:35;22.10;74.20
76172;DHT22;64929;51.178;4.138;2023-08-01T13:59:01;22.00;74.80
76172;DHT22;64929;51.178;4.138;2023-08-01T14:01:27;21.80;72.50
76172;DHT22;64929;51.178;4.138;2023-08-01T14:03:52;21.80;72.40
76172;DHT22;64929;51.178;4.138;2023-08-01T14:06:18;21.60;72.90
76172;DHT22;64929;51.178;4.138;2023-08-01T14:08:44;21.50;72.50
76172;DHT22;64929;51.178;4.138;2023-08-01T14:11:10;21.30;74.90
76172;DHT22;64929;51.178;4.138;2023-08-01T14:13:36;21.40;74.80
76172;DHT22;64929;51.178;4.138;2023-08-01T14:16:02;21.20;75.60
76172;DHT22;64929;51.178;4.138;2023-08-01T14:18:29;20.90;76.20
76172;DHT22;64929;51.178;4.138;2023-08-01T14:20:55;20.60;78.60
76172;DHT22;64929;51.178;4.138;2023-08-01T14:23:21;20.40;78.70
76172;DHT22;64929;51.178;4.138;2023-08-01T14:25:47;20.40;79.30
76172;DHT22;64929;51.178;4.138;2023-08-01T14:28:13;20.20;80.00
76172;DHT22;64929;51.178;4.138;2023-08-01T14:30:39;20.20;79.60
76172;DHT22;64929;51.178;4.138;2023-08-01T14:33:07;20.10;80.20
76172;DHT22;64929;51.178;4.138;2023-08-01T14:35:37;20.20;80.70
76172;DHT22;64929;51.178;4.138;2023-08-01T14:38:06;20.00;82.20
76172;DHT22;64929;51.178;4.138;2023-08-01T14:40:33;20.10;81.70
76172;DHT22;64929;51.178;4.138;2023-08-01T14:43:01;20.20;81.70
76172;DHT22;64929;51.178;4.138;2023-08-01T14:45:27;20.20;81.00
76172;DHT22;64929;51.178;4.138;2023-08-01T14:47:53;20.40;80.60
76172;DHT22;64929;51.178;4.138;2023-08-01T14:50:18;20.50;78.90
76172;DHT22;64929;51.178;4.138;2023-08-01T14:52:44;20.50;80.50
76172;DHT22;64929;51.178;4.138;2023-08-01T14:55:10;20.50;80.20
76172;DHT22;64929;51.178;4.138;2023-08-01T14:57:36;20.60;79.30
76172;DHT22;64929;51.178;4.138;2023-08-01T15:00:02;20.80;79.70
76172;DHT22;64929;51.178;4.138;2023-08-01T15:02:29;20.90;80.30
76172;DHT22;64929;51.178;4.138;2023-08-01T15:04:55;21.10;78.40
76172;DHT22;64929;51.178;4.138;2023-08-01T15:07:23;21.10;80.50
76172;DHT22;64929;51.178;4.138;2023-08-01T15:09:49;21.00;77.60
76172;DHT22;64929;51.178;4.138;2023-08-01T15:12:16;20.90;78.00
76172;DHT22;64929;51.178;4.138;2023-08-01T15:14:42;21.20;78.80
76172;DHT22;64929;51.178;4.138;2023-08-01T15:17:07;21.10;79.50
76172;DHT22;64929;51.178;4.138;2023-08-01T15:19:35;21.30;79.50
76172;DHT22;64929;51.178;4.138;2023-08-01T15:22:01;21.80;75.50
76172;DHT22;64929;51.178;4.138;2023-08-01T15:24:29;22.00;74.70
76172;DHT22;64929;51.178;4.138;2023-08-01T15:26:55;21.90;76.10
76172;DHT22;64929;51.178;4.138;2023-08-01T15:29:21;22.00;73.60